Englesville, Pennsylvania
Current Conditions -  °F | °C
As of 4:24 AM on Wednesday 22 Oct 2014 (Local Time) from KPTW Reporting Station
Broken Clouds Broken Clouds  
Wind Chill: 53°   Ceiling: 1400
Heat Index: 53°   Visibility: 10mi
Dew Point: 49°   Wind: 12mph
Humidity: 86%   Direction: 10°N
Pressure: 29.88"   Gusts: NA
Location:  40.3481°N, 75.6818°W
Report Text: KPTW 220824Z AUTO 01010KT 10SM BKN014 12/09 A2988 RMK AO2 T01170094
Loading
Personal Weather Stations






























Interactive Weather Map
Tropical Storm Tracking
New forecast layout! Learn more

10-Day Weather Forecast

Advertisements
Track Severe Weather on mobile